Fireboat Challenger — WR8183 — position and weather

sailwx.info

Track history (hours):
 
Tides and Currents Weather Stations Pressure Air Temp Water Temp Dewpoint Dewpoint Depression Visibility Wind Speed Wind Dir Waves Ship Positions

Fireboat Challenger

More information available from US FCC via Universal Licensing System and Coast Guard Vessel Documentation Center.

Last reported at 2014-Aug-29 21:32 UTC. Time now 2014-Aug-29 22:25 UTC.
Position N 33°45' W 118°13'.

Length 29 m.

MMSI: 367067790.

Date/timePositionNaut miles runAvg speedWind from/ knotsBaromVisibWave heightAir tempDewpointWater temp
2014-Aug-29 21:32N 33°45' W 118°13'0 0.0
2014-Aug-29 20:33N 33°45' W 118°13'0 0.0
2014-Aug-29 19:33N 33°45' W 118°13'0 0.0
2014-Aug-29 18:32N 33°45' W 118°13'0 0.0
2014-Aug-29 17:33N 33°45' W 118°13'0 0.0
2014-Aug-29 16:28N 33°45' W 118°13'0 0.0
2014-Aug-29 15:32N 33°45' W 118°13'0 0.0
2014-Aug-29 00:31N 33°45' W 118°13'0 0.0
2014-Aug-28 22:10N 33°45' W 118°13'0 0.0
2014-Aug-28 15:21N 33°45' W 118°13'0 0.0
2014-Aug-28 14:32N 33°45' W 118°13'0 0.0
2014-Aug-28 13:32N 33°45' W 118°13'3 2.7
2014-Aug-28 12:29N 33°45' W 118°09'3 1.5
2014-Aug-28 10:32N 33°45' W 118°13'0 0.0
2014-Aug-28 09:30N 33°45' W 118°13'0 0.0
2014-Aug-28 08:33N 33°45' W 118°13'0 0.0
2014-Aug-28 07:06N 33°45' W 118°13'0 0.0
2014-Aug-28 02:12N 33°45' W 118°13'0 0.0
2014-Aug-27 21:28N 33°45' W 118°13'0 0.0
2014-Aug-27 20:33N 33°45' W 118°13'0 0.0
2014-Aug-27 19:32N 33°45' W 118°13'0 0.0
2014-Aug-27 18:33N 33°45' W 118°13'5 3.7
2014-Aug-27 17:17N 33°44' W 118°07'5 1.1
2014-Aug-27 13:12N 33°45' W 118°13'0 0.0
2014-Aug-27 12:31N 33°45' W 118°13'1 0.4
2014-Aug-27 09:30N 33°44' W 118°14'1 1.2
2014-Aug-27 08:31N 33°45' W 118°13'0 0.0
2014-Aug-27 07:32N 33°45' W 118°13'0 0.0
2014-Aug-27 06:33N 33°45' W 118°13'0 0.0
2014-Aug-27 05:33N 33°45' W 118°13'0 0.0
2014-Aug-27 04:26N 33°45' W 118°13'0 0.0
2014-Aug-27 03:33N 33°45' W 118°13'0 0.0
2014-Aug-27 02:33N 33°45' W 118°13'0 0.0
2014-Aug-27 00:20N 33°45' W 118°13'0 0.0
2014-Aug-26 23:33N 33°45' W 118°13'3 2.1
2014-Aug-26 22:22N 33°44' W 118°10'3 3.1
2014-Aug-26 21:25N 33°45' W 118°07'5 5.4
2014-Aug-26 20:30N 33°43' W 118°12'4 0.2
2014-Aug-25 21:17N 33°44' W 118°17'1 1.4
2014-Aug-25 20:24N 33°43' W 118°16'3 0.2
2014-Aug-25 02:33N 33°45' W 118°13'0 0.0
2014-Aug-25 01:32N 33°45' W 118°13'0 0.0
2014-Aug-25 00:21N 33°45' W 118°13'0 0.0
2014-Aug-24 23:15N 33°45' W 118°13'0 0.0
2014-Aug-24 22:33N 33°45' W 118°13'0 0.0
2014-Aug-24 21:26N 33°45' W 118°13'0 0.0
2014-Aug-24 20:33N 33°45' W 118°13'0 0.0
2014-Aug-24 00:33N 33°45' W 118°13'0 0.0
2014-Aug-23 23:33N 33°45' W 118°13'0 0.0
2014-Aug-23 22:33N 33°45' W 118°13'0 0.0
2014-Aug-23 01:23N 33°45' W 118°13'0 0.0
2014-Aug-22 23:24N 33°45' W 118°13'0 0.0
2014-Aug-22 22:34N 33°45' W 118°13'  
Track history (hours):
 
Tides and Currents Weather Stations Pressure Air Temp Water Temp Dewpoint Dewpoint Depression Visibility Wind Speed Wind Dir Waves Ship Positions

Fireboat Challenger

More information available from US FCC via Universal Licensing System and Coast Guard Vessel Documentation Center.

Last reported at 2014-Aug-29 21:32 UTC. Time now 2014-Aug-29 22:25 UTC.
Position N 33°45' W 118°13'.

Length 29 m.

MMSI: 367067790.

Date/timePositionNaut miles runAvg speedWind from/ knotsBaromVisibWave heightAir tempDewpointWater temp
2014-Aug-29 21:32N 33°45' W 118°13'0 0.0
2014-Aug-29 20:33N 33°45' W 118°13'0 0.0
2014-Aug-29 19:33N 33°45' W 118°13'0 0.0
2014-Aug-29 18:32N 33°45' W 118°13'0 0.0
2014-Aug-29 17:33N 33°45' W 118°13'0 0.0
2014-Aug-29 16:28N 33°45' W 118°13'0 0.0
2014-Aug-29 15:32N 33°45' W 118°13'0 0.0
2014-Aug-29 00:31N 33°45' W 118°13'0 0.0
2014-Aug-28 22:10N 33°45' W 118°13'0 0.0
2014-Aug-28 15:21N 33°45' W 118°13'0 0.0
2014-Aug-28 14:32N 33°45' W 118°13'0 0.0
2014-Aug-28 13:32N 33°45' W 118°13'3 2.7
2014-Aug-28 12:29N 33°45' W 118°09'3 1.5
2014-Aug-28 10:32N 33°45' W 118°13'0 0.0
2014-Aug-28 09:30N 33°45' W 118°13'0 0.0
2014-Aug-28 08:33N 33°45' W 118°13'0 0.0
2014-Aug-28 07:06N 33°45' W 118°13'0 0.0
2014-Aug-28 02:12N 33°45' W 118°13'0 0.0
2014-Aug-27 21:28N 33°45' W 118°13'0 0.0
2014-Aug-27 20:33N 33°45' W 118°13'0 0.0
2014-Aug-27 19:32N 33°45' W 118°13'0 0.0
2014-Aug-27 18:33N 33°45' W 118°13'5 3.7
2014-Aug-27 17:17N 33°44' W 118°07'5 1.1
2014-Aug-27 13:12N 33°45' W 118°13'0 0.0
2014-Aug-27 12:31N 33°45' W 118°13'1 0.4
2014-Aug-27 09:30N 33°44' W 118°14'1 1.2
2014-Aug-27 08:31N 33°45' W 118°13'0 0.0
2014-Aug-27 07:32N 33°45' W 118°13'0 0.0
2014-Aug-27 06:33N 33°45' W 118°13'0 0.0
2014-Aug-27 05:33N 33°45' W 118°13'0 0.0
2014-Aug-27 04:26N 33°45' W 118°13'0 0.0
2014-Aug-27 03:33N 33°45' W 118°13'0 0.0
2014-Aug-27 02:33N 33°45' W 118°13'0 0.0
2014-Aug-27 00:20N 33°45' W 118°13'0 0.0
2014-Aug-26 23:33N 33°45' W 118°13'3 2.1
2014-Aug-26 22:22N 33°44' W 118°10'3 3.1
2014-Aug-26 21:25N 33°45' W 118°07'5 5.4
2014-Aug-26 20:30N 33°43' W 118°12'4 0.2
2014-Aug-25 21:17N 33°44' W 118°17'1 1.4
2014-Aug-25 20:24N 33°43' W 118°16'3 0.2
2014-Aug-25 02:33N 33°45' W 118°13'0 0.0
2014-Aug-25 01:32N 33°45' W 118°13'0 0.0
2014-Aug-25 00:21N 33°45' W 118°13'0 0.0
2014-Aug-24 23:15N 33°45' W 118°13'0 0.0
2014-Aug-24 22:33N 33°45' W 118°13'0 0.0
2014-Aug-24 21:26N 33°45' W 118°13'0 0.0
2014-Aug-24 20:33N 33°45' W 118°13'0 0.0
2014-Aug-24 00:33N 33°45' W 118°13'0 0.0
2014-Aug-23 23:33N 33°45' W 118°13'0 0.0
2014-Aug-23 22:33N 33°45' W 118°13'0 0.0
2014-Aug-23 01:23N 33°45' W 118°13'0 0.0
2014-Aug-22 23:24N 33°45' W 118°13'0 0.0
2014-Aug-22 22:34N 33°45' W 118°13'  

Dump ship's entire track history